createdAt,value
2018-11-26T00:00:39.286Z,68.85
2018-11-26T00:03:44.392Z,67.35
2018-11-26T00:06:37.032Z,69.30
2018-11-26T00:09:42.838Z,67.10
2018-11-26T00:12:38.691Z,67.17
2018-11-26T00:15:35.682Z,66.80
2018-11-26T00:18:32.263Z,68.35
2018-11-26T00:21:28.659Z,65.05
2018-11-26T00:24:25.192Z,66.70
2018-11-26T00:27:21.466Z,67.05
2018-11-26T00:30:18.408Z,64.70
2018-11-26T00:33:17.982Z,64.72
2018-11-26T00:36:14.277Z,65.45
2018-11-26T00:39:14.343Z,63.05
2018-11-26T00:42:10.510Z,64.62
2018-11-26T00:45:06.791Z,63.95
2018-11-26T00:48:03.349Z,65.57
2018-11-26T00:51:05.702Z,64.60
2018-11-26T00:54:01.754Z,62.73
2018-11-26T00:56:59.286Z,63.75
2018-11-26T00:59:55.669Z,66.40
2018-11-26T01:02:52.720Z,63.15
2018-11-26T01:05:49.514Z,65.15
2018-11-26T01:08:46.108Z,64.60
2018-11-26T01:11:42.523Z,62.38
2018-11-26T01:14:40.776Z,64.85
2018-11-26T01:17:38.008Z,61.73
2018-11-26T01:20:34.478Z,65.25
2018-11-26T01:23:30.819Z,64.25
2018-11-26T01:26:26.902Z,65.42
2018-11-26T01:29:23.889Z,64.53
2018-11-26T01:32:20.744Z,64.22
2018-11-26T01:35:17.031Z,66.97
2018-11-26T01:38:13.287Z,65.80
2018-11-26T01:41:09.856Z,64.07
2018-11-26T01:44:16.101Z,67.78
2018-11-26T01:47:11.938Z,69.03
2018-11-26T01:50:08.416Z,69.50
2018-11-26T01:53:09.193Z,71.30
2018-11-26T01:56:01.931Z,69.40
2018-11-26T01:58:58.323Z,70.22
2018-11-26T02:01:54.858Z,72.70
2018-11-26T02:04:51.372Z,67.60
2018-11-26T02:07:48.367Z,68.52
2018-11-26T02:10:44.873Z,72.00
2018-11-26T02:13:44.132Z,71.37
2018-11-26T02:16:43.860Z,70.17
2018-11-26T02:19:40.459Z,69.45
2018-11-26T02:22:36.975Z,70.47
2018-11-26T02:25:33.792Z,71.05
2018-11-26T02:28:30.378Z,69.92
2018-11-26T02:31:26.978Z,71.80
2018-11-26T02:34:23.568Z,75.60
2018-11-26T02:37:19.989Z,76.53
2018-11-26T02:40:27.431Z,78.83
2018-11-26T02:43:25.138Z,76.85
2018-11-26T02:46:22.473Z,78.02
2018-11-26T02:49:19.040Z,79.25
2018-11-26T02:52:16.192Z,74.75
2018-11-26T02:55:13.848Z,77.03
2018-11-26T02:58:11.689Z,76.95
2018-11-26T03:01:08.400Z,79.07
2018-11-26T03:04:05.452Z,80.20
2018-11-26T03:07:02.710Z,76.28
2018-11-26T03:09:58.783Z,76.55
2018-11-26T03:12:56.180Z,78.80
2018-11-26T03:15:53.463Z,81.12
2018-11-26T03:18:51.236Z,82.47
2018-11-26T03:21:47.819Z,83.40
2018-11-26T03:24:44.990Z,82.15
2018-11-26T03:27:41.602Z,83.45
2018-11-26T03:30:38.711Z,84.47
2018-11-26T03:33:41.888Z,87.57
2018-11-26T03:36:38.593Z,87.45
2018-11-26T03:39:39.115Z,84.45
2018-11-26T03:42:32.426Z,86.90
2018-11-26T03:45:29.026Z,90.20
2018-11-26T03:48:25.344Z,89.50
2018-11-26T03:51:22.011Z,91.72
2018-11-26T03:54:18.609Z,89.00
2018-11-26T03:57:18.051Z,89.22
2018-11-26T04:00:21.059Z,94.90
2018-11-26T04:03:17.435Z,89.15
2018-11-26T04:06:13.846Z,86.50
2018-11-26T04:09:11.856Z,86.30
2018-11-26T04:12:08.907Z,83.27
2018-11-26T04:15:05.537Z,77.92
2018-11-26T04:18:02.545Z,83.07
2018-11-26T04:20:59.306Z,79.37
2018-11-26T04:23:55.765Z,81.12
2018-11-26T04:26:52.749Z,76.92
2018-11-26T04:29:49.609Z,77.62
2018-11-26T04:32:46.299Z,78.50
2018-11-26T04:35:45.578Z,79.77
2018-11-26T04:38:41.660Z,78.25
2018-11-26T04:41:38.224Z,76.53
2018-11-26T04:44:35.616Z,73.15
2018-11-26T04:47:32.968Z,73.95
2018-11-26T04:50:29.881Z,74.67
2018-11-26T04:53:27.070Z,71.07
2018-11-26T04:56:24.443Z,68.42
2018-11-26T04:59:21.897Z,70.35
2018-11-26T05:02:18.523Z,68.47
2018-11-26T05:05:16.879Z,66.77
2018-11-26T05:19:45.031Z,66.97
2018-11-26T05:22:41.683Z,66.37
2018-11-26T05:25:39.917Z,62.88
2018-11-26T05:28:37.061Z,59.50
2018-11-26T05:31:34.001Z,61.15
2018-11-26T05:34:30.593Z,59.53
2018-11-26T05:37:28.304Z,56.30
2018-11-26T05:40:27.104Z,58.33
2018-11-26T05:43:24.802Z,55.83
2018-11-26T05:46:22.068Z,55.73
2018-11-26T05:49:18.953Z,53.42
2018-11-26T05:52:17.361Z,53.33
2018-11-26T05:55:16.391Z,54.03
2018-11-26T05:58:14.758Z,52.27
2018-11-26T06:01:11.882Z,50.45
2018-11-26T06:04:08.566Z,48.98
2018-11-26T06:07:04.952Z,50.35
2018-11-26T06:10:01.244Z,48.95
2018-11-26T06:12:57.987Z,46.75
2018-11-26T06:15:53.976Z,47.27
2018-11-26T06:18:50.226Z,46.33
2018-11-26T06:21:52.980Z,46.15
2018-11-26T06:24:58.842Z,43.55
2018-11-26T06:27:53.139Z,43.83
2018-11-26T06:30:49.599Z,43.85
2018-11-26T06:34:02.044Z,41.30
2018-11-26T06:37:01.916Z,41.73
2018-11-26T06:40:04.410Z,41.85
2018-11-26T06:43:01.957Z,39.83
2018-11-26T06:46:01.345Z,40.50
2018-11-26T06:49:06.818Z,38.13
2018-11-26T06:52:04.018Z,40.43
2018-11-26T06:55:09.290Z,37.25
2018-11-26T06:58:06.381Z,37.50
2018-11-26T07:01:03.299Z,37.45
2018-11-26T07:04:00.009Z,37.67
2018-11-26T07:06:56.261Z,36.53
2018-11-26T07:09:53.127Z,36.03
2018-11-26T07:12:52.178Z,36.98
2018-11-26T07:15:48.671Z,33.83
2018-11-26T07:18:46.783Z,34.90
2018-11-26T07:21:49.427Z,34.58
2018-11-26T07:24:46.172Z,34.03
2018-11-26T07:27:42.528Z,35.20
2018-11-26T07:30:38.553Z,34.45
2018-11-26T07:33:36.526Z,33.08
2018-11-26T07:36:34.189Z,33.63
2018-11-26T07:39:31.212Z,32.90
2018-11-26T07:42:28.560Z,33.38
2018-11-26T07:45:26.928Z,32.67
2018-11-26T07:48:29.268Z,31.95
2018-11-26T07:51:27.100Z,31.40
2018-11-26T07:54:24.680Z,33.15
2018-11-26T07:57:21.568Z,30.88
2018-11-26T08:00:18.985Z,31.73
2018-11-26T08:03:18.582Z,30.88
2018-11-26T08:06:19.373Z,31.07
2018-11-26T08:09:15.965Z,30.48
2018-11-26T08:12:12.489Z,30.02
2018-11-26T08:15:11.581Z,29.92
2018-11-26T08:18:09.523Z,30.08
2018-11-26T08:21:06.368Z,29.90
2018-11-26T08:24:02.829Z,29.98
2018-11-26T08:26:58.885Z,29.40
2018-11-26T08:29:54.795Z,29.00
2018-11-26T08:32:52.097Z,28.73
2018-11-26T08:35:49.244Z,29.42
2018-11-26T08:39:08.671Z,29.72
2018-11-26T08:42:25.710Z,28.40
2018-11-26T08:45:33.341Z,28.92
2018-11-26T08:48:31.147Z,29.55
2018-11-26T08:51:27.915Z,28.55
2018-11-26T08:54:25.123Z,30.77
2018-11-26T08:57:24.333Z,30.10
2018-11-26T09:00:20.989Z,27.90
2018-11-26T09:03:26.422Z,27.37
2018-11-26T09:06:23.399Z,28.35
2018-11-26T09:09:21.428Z,28.45
2018-11-26T09:12:17.773Z,28.73
2018-11-26T09:15:21.004Z,28.32
2018-11-26T09:18:18.433Z,27.55
2018-11-26T09:21:15.447Z,27.55
2018-11-26T09:24:13.155Z,28.62
2018-11-26T09:27:10.974Z,27.85
2018-11-26T09:30:10.664Z,29.32
2018-11-26T09:33:10.424Z,30.02
2018-11-26T09:36:09.543Z,29.80
2018-11-26T09:39:08.691Z,29.12
2018-11-26T09:42:08.608Z,28.73
2018-11-26T09:45:07.982Z,28.50
2018-11-26T09:48:06.897Z,28.67
2018-11-26T09:51:05.352Z,28.55
2018-11-26T09:54:06.405Z,28.73
2018-11-26T09:57:03.586Z,30.10
2018-11-26T10:00:00.762Z,29.32
2018-11-26T10:02:57.899Z,28.60
2018-11-26T10:05:55.595Z,31.50
2018-11-26T10:08:53.269Z,29.55
2018-11-26T10:11:51.029Z,29.60
2018-11-26T10:14:48.843Z,28.32
2018-11-26T10:17:45.517Z,28.83
2018-11-26T10:20:45.069Z,28.92
2018-11-26T10:23:41.483Z,29.23
2018-11-26T10:26:38.343Z,28.75
2018-11-26T10:29:33.941Z,29.55
2018-11-26T10:32:29.643Z,29.57
2018-11-26T10:35:25.790Z,29.87
2018-11-26T10:38:24.620Z,27.77
2018-11-26T10:41:21.347Z,27.77
2018-11-26T10:44:19.733Z,28.42
2018-11-26T10:47:17.289Z,27.52
2018-11-26T10:50:19.368Z,27.48
2018-11-26T10:53:17.276Z,27.15
2018-11-26T10:56:13.754Z,27.52
2018-11-26T10:59:10.487Z,26.02
2018-11-26T11:02:23.016Z,27.25
2018-11-26T11:05:19.120Z,26.17
2018-11-26T11:08:15.545Z,26.50
2018-11-26T11:11:12.041Z,26.97
2018-11-26T11:14:10.054Z,26.60
2018-11-26T11:17:06.769Z,26.33
2018-11-26T11:20:03.347Z,26.42
2018-11-26T11:23:00.434Z,28.15
2018-11-26T11:25:56.840Z,25.72
2018-11-26T11:28:52.693Z,26.20
2018-11-26T11:31:49.207Z,25.88
2018-11-26T11:34:45.672Z,27.42
2018-11-26T11:37:43.240Z,27.27
2018-11-26T11:40:39.717Z,26.45
2018-11-26T11:43:39.228Z,28.23
2018-11-26T11:46:36.460Z,26.05
2018-11-26T11:49:34.749Z,26.50
2018-11-26T11:52:33.411Z,26.45
2018-11-26T11:55:32.371Z,25.95
2018-11-26T11:58:31.404Z,26.15
2018-11-26T12:01:30.329Z,26.62
2018-11-26T12:04:28.845Z,25.70
2018-11-26T12:07:27.308Z,26.90
2018-11-26T12:10:25.556Z,28.70
2018-11-26T12:13:22.616Z,29.15
2018-11-26T12:16:20.081Z,30.27
2018-11-26T12:19:16.808Z,31.80
2018-11-26T12:22:15.263Z,32.73
2018-11-26T12:25:31.767Z,33.92
2018-11-26T12:28:36.409Z,35.48
2018-11-26T12:31:34.649Z,38.17
2018-11-26T12:34:31.413Z,39.25
2018-11-26T12:37:30.259Z,40.88
2018-11-26T12:40:27.681Z,44.30
2018-11-26T12:43:25.370Z,42.93
2018-11-26T12:46:22.459Z,42.05
2018-11-26T12:49:19.463Z,43.42
2018-11-26T12:52:16.983Z,43.08
2018-11-26T12:55:22.192Z,45.28
2018-11-26T12:58:20.091Z,45.30
2018-11-26T13:01:17.562Z,43.33
2018-11-26T13:04:16.924Z,45.35
2018-11-26T13:07:14.274Z,46.00
2018-11-26T13:10:11.762Z,45.50
2018-11-26T13:13:09.235Z,48.00
2018-11-26T13:16:05.168Z,47.48
2018-11-26T13:19:01.565Z,46.92
2018-11-26T13:21:57.598Z,46.05
2018-11-26T13:24:54.226Z,46.73
2018-11-26T13:27:54.951Z,46.37
2018-11-26T13:30:55.498Z,45.45
2018-11-26T13:33:52.053Z,44.65
2018-11-26T13:36:48.050Z,46.80
2018-11-26T13:39:45.113Z,43.13
2018-11-26T13:42:42.513Z,46.23
2018-11-26T13:45:49.284Z,42.62
2018-11-26T13:48:46.396Z,45.05
2018-11-26T13:51:42.941Z,44.65
2018-11-26T13:54:42.963Z,45.45
2018-11-26T13:57:39.331Z,44.50
2018-11-26T14:00:35.913Z,44.05
2018-11-26T14:03:32.420Z,42.75
2018-11-26T14:06:28.612Z,44.38
2018-11-26T14:09:25.140Z,44.42
2018-11-26T14:12:20.913Z,44.50
2018-11-26T14:15:19.087Z,44.80
2018-11-26T14:18:15.574Z,43.33
2018-11-26T14:21:11.754Z,42.30
2018-11-26T14:24:07.981Z,41.77
2018-11-26T14:27:04.159Z,43.78
2018-11-26T14:30:00.361Z,43.00
2018-11-26T14:32:56.572Z,41.75
2018-11-26T14:35:53.176Z,41.33
2018-11-26T14:38:49.215Z,42.15
2018-11-26T14:41:46.429Z,41.30
2018-11-26T14:44:43.199Z,42.08
2018-11-26T14:47:41.000Z,42.75
2018-11-26T14:50:38.053Z,42.10
2018-11-26T14:53:35.048Z,40.67
2018-11-26T14:56:32.560Z,40.75
2018-11-26T14:59:29.857Z,42.62
2018-11-26T15:02:27.925Z,40.98
2018-11-26T15:05:25.164Z,40.83
2018-11-26T15:08:22.425Z,41.85
2018-11-26T15:11:19.626Z,43.13
2018-11-26T15:14:17.178Z,40.90
2018-11-26T15:17:15.591Z,40.63
2018-11-26T15:20:18.117Z,40.83
2018-11-26T15:23:15.473Z,41.50
2018-11-26T15:26:13.195Z,42.13
2018-11-26T15:29:16.242Z,41.20
2018-11-26T15:32:16.961Z,40.65
2018-11-26T15:35:12.756Z,39.98
2018-11-26T15:38:10.272Z,40.17
2018-11-26T15:41:08.367Z,38.58
2018-11-26T15:44:05.911Z,40.88
2018-11-26T15:47:03.635Z,40.28
2018-11-26T15:50:01.367Z,41.77
2018-11-26T15:53:00.755Z,40.80
2018-11-26T15:56:01.878Z,39.25
2018-11-26T15:58:59.635Z,39.75
2018-11-26T16:01:57.189Z,39.53
2018-11-26T16:04:54.731Z,40.17
2018-11-26T16:07:56.786Z,40.92
2018-11-26T16:10:54.888Z,41.35
2018-11-26T16:13:56.482Z,40.80
2018-11-26T16:16:54.305Z,40.80
2018-11-26T16:19:54.679Z,38.85
2018-11-26T16:22:52.735Z,40.52
2018-11-26T16:25:51.385Z,39.75
2018-11-26T16:28:52.158Z,38.73
2018-11-26T16:31:49.707Z,39.58
2018-11-26T16:34:46.945Z,38.23
2018-11-26T16:37:44.236Z,38.63
2018-11-26T16:40:41.799Z,39.38
2018-11-26T16:43:39.191Z,37.73
2018-11-26T16:46:36.477Z,38.60
2018-11-26T16:49:34.012Z,38.50
2018-11-26T16:52:31.527Z,38.25
2018-11-26T16:55:30.425Z,38.80
2018-11-26T16:58:28.368Z,39.38
2018-11-26T17:01:26.577Z,38.98
2018-11-26T17:04:26.740Z,38.00
2018-11-26T17:07:24.324Z,36.65
2018-11-26T17:10:21.992Z,37.80
2018-11-26T17:13:20.484Z,38.30
2018-11-26T17:16:18.291Z,38.65
2018-11-26T17:19:15.464Z,38.28
2018-11-26T17:22:12.939Z,38.38
2018-11-26T17:25:11.029Z,38.02
2018-11-26T17:28:08.326Z,37.10
2018-11-26T17:31:05.604Z,38.30
2018-11-26T17:34:02.522Z,40.03
2018-11-26T17:36:59.675Z,37.73
2018-11-26T17:39:56.695Z,37.28
2018-11-26T17:42:54.244Z,36.93
2018-11-26T17:45:51.200Z,38.50
2018-11-26T17:48:48.446Z,37.17
2018-11-26T17:51:48.513Z,37.70
2018-11-26T17:54:44.792Z,37.55
2018-11-26T17:57:40.765Z,36.70
2018-11-26T18:00:38.442Z,38.80
2018-11-26T18:03:35.286Z,37.08
2018-11-26T18:06:31.274Z,35.28
2018-11-26T18:09:31.002Z,37.40
2018-11-26T18:12:26.989Z,38.55
2018-11-26T18:15:23.091Z,37.42
2018-11-26T18:18:20.436Z,36.85
2018-11-26T18:21:16.519Z,36.85
2018-11-26T18:24:13.007Z,36.60
2018-11-26T18:27:09.386Z,38.15
2018-11-26T18:30:05.683Z,37.20
2018-11-26T18:33:02.534Z,37.23
2018-11-26T18:36:01.474Z,38.40
2018-11-26T18:38:57.809Z,37.42
2018-11-26T18:41:55.313Z,38.42
2018-11-26T18:44:51.644Z,37.48
2018-11-26T18:47:48.408Z,35.80
2018-11-26T18:50:44.941Z,35.50
2018-11-26T18:53:41.101Z,37.85
2018-11-26T18:56:37.626Z,38.20
2018-11-26T18:59:34.071Z,37.88
2018-11-26T19:02:30.648Z,36.58
2018-11-26T19:05:27.117Z,37.20
2018-11-26T19:08:23.288Z,36.15
2018-11-26T19:11:24.240Z,35.80
2018-11-26T19:14:30.597Z,38.05
2018-11-26T19:17:27.513Z,35.28
2018-11-26T19:20:24.389Z,38.15
2018-11-26T19:23:24.328Z,36.98
2018-11-26T19:26:20.914Z,36.15
2018-11-26T19:29:20.673Z,36.20
2018-11-26T19:32:13.837Z,34.40
2018-11-26T19:35:11.155Z,35.70
2018-11-26T19:38:07.197Z,36.60
2018-11-26T19:41:03.155Z,35.52
2018-11-26T19:43:59.301Z,35.05
2018-11-26T19:46:55.589Z,34.88
2018-11-26T19:49:51.756Z,35.65
2018-11-26T19:52:52.594Z,36.60
2018-11-26T19:55:49.250Z,37.17
2018-11-26T19:58:45.272Z,37.23
2018-11-26T20:01:42.061Z,35.68
2018-11-26T20:04:53.891Z,36.63
2018-11-26T20:07:49.980Z,36.93
2018-11-26T20:10:46.510Z,35.98
2018-11-26T20:13:42.813Z,36.90
2018-11-26T20:16:44.879Z,36.83
2018-11-26T20:19:41.608Z,38.60
2018-11-26T20:22:40.076Z,37.42
2018-11-26T20:25:35.893Z,37.33
2018-11-26T20:28:32.347Z,37.10
2018-11-26T20:31:28.784Z,40.43
2018-11-26T20:34:24.863Z,38.42
2018-11-26T20:37:21.263Z,39.38
2018-11-26T20:40:21.665Z,39.95
2018-11-26T20:43:24.379Z,38.20
2018-11-26T20:46:20.904Z,40.38
2018-11-26T20:49:17.276Z,41.30
2018-11-26T20:52:13.646Z,38.50
2018-11-26T20:55:11.110Z,39.30
2018-11-26T20:58:07.420Z,41.75
2018-11-26T21:01:03.517Z,41.18
2018-11-26T21:04:03.930Z,44.00
2018-11-26T21:07:00.841Z,45.70
2018-11-26T21:09:57.063Z,43.50
2018-11-26T21:12:53.386Z,44.83
2018-11-26T21:15:50.764Z,45.65
2018-11-26T21:18:47.239Z,44.93
2018-11-26T21:21:43.406Z,44.10
2018-11-26T21:24:39.681Z,44.67
2018-11-26T21:27:35.993Z,45.80
2018-11-26T21:30:32.365Z,46.18
2018-11-26T21:33:28.773Z,48.15
2018-11-26T21:36:24.652Z,49.45
2018-11-26T21:39:21.194Z,48.98
2018-11-26T21:42:21.025Z,48.35
2018-11-26T21:45:22.027Z,49.90
2018-11-26T21:48:18.789Z,50.75
2018-11-26T21:51:15.294Z,50.73
2018-11-26T21:54:11.679Z,50.17
2018-11-26T21:57:08.411Z,50.70
2018-11-26T22:00:07.105Z,51.42
2018-11-26T22:03:15.309Z,50.70
2018-11-26T22:06:12.347Z,51.40
2018-11-26T22:09:09.252Z,51.53
2018-11-26T22:12:05.273Z,53.17
2018-11-26T22:15:01.260Z,51.85
2018-11-26T22:18:01.083Z,54.03
2018-11-26T22:20:57.387Z,56.35
2018-11-26T22:23:53.826Z,55.63
2018-11-26T22:26:50.270Z,54.73
2018-11-26T22:29:46.867Z,55.25
2018-11-26T22:32:43.336Z,55.43
2018-11-26T22:35:39.825Z,60.50
2018-11-26T22:38:36.205Z,58.23
2018-11-26T22:41:33.156Z,59.30
2018-11-26T22:44:29.165Z,60.00
2018-11-26T22:47:25.281Z,60.15
2018-11-26T22:50:23.191Z,62.67
2018-11-26T22:53:19.986Z,62.15
2018-11-26T22:56:16.151Z,63.90
2018-11-26T22:59:12.607Z,60.12
2018-11-26T23:02:08.833Z,61.25
2018-11-26T23:05:05.099Z,64.80
2018-11-26T23:08:01.512Z,61.40
2018-11-26T23:10:57.825Z,61.13
2018-11-26T23:13:54.541Z,61.55
2018-11-26T23:16:51.011Z,62.48
2018-11-26T23:19:47.093Z,61.85
2018-11-26T23:22:43.399Z,58.35
2018-11-26T23:25:39.437Z,58.95
2018-11-26T23:28:35.717Z,59.73
2018-11-26T23:31:32.004Z,60.35
2018-11-26T23:34:27.746Z,57.93
2018-11-26T23:37:30.373Z,59.48
2018-11-26T23:40:27.734Z,59.70
2018-11-26T23:43:23.570Z,61.58
2018-11-26T23:46:23.723Z,59.63
2018-11-26T23:49:20.222Z,59.90
2018-11-26T23:52:17.027Z,57.38
2018-11-26T23:55:17.481Z,58.42
2018-11-26T23:58:14.107Z,56.45
